createdAt,value
2019-01-04T00:00:27.050Z,70.64
2019-01-04T00:02:58.704Z,70.29
2019-01-04T00:05:28.674Z,71.56
2019-01-04T00:07:58.632Z,69.35
2019-01-04T00:10:28.523Z,69.58
2019-01-04T00:12:58.536Z,69.74
2019-01-04T00:15:28.481Z,68.00
2019-01-04T00:17:58.504Z,69.93
2019-01-04T00:20:29.543Z,69.75
2019-01-04T00:22:59.552Z,70.07
2019-01-04T00:25:29.475Z,71.16
2019-01-04T00:27:59.505Z,71.21
2019-01-04T00:30:29.450Z,71.01
2019-01-04T00:32:59.454Z,69.31
2019-01-04T00:35:29.419Z,71.26
2019-01-04T00:37:59.405Z,71.79
2019-01-04T00:40:29.428Z,72.41
2019-01-04T00:42:59.354Z,71.56
2019-01-04T00:45:29.394Z,70.83
2019-01-04T00:47:59.404Z,68.60
2019-01-04T00:50:29.453Z,67.39
2019-01-04T00:52:59.437Z,66.08
2019-01-04T00:56:02.212Z,69.50
2019-01-04T00:59:12.199Z,69.23
2019-01-04T01:02:15.458Z,70.10
2019-01-04T01:05:25.402Z,70.49
2019-01-04T01:08:10.585Z,69.90
2019-01-04T01:11:43.137Z,68.67
2019-01-04T01:14:48.297Z,69.30
2019-01-04T01:18:04.463Z,68.90
2019-01-04T01:21:30.007Z,68.73
2019-01-04T01:24:29.427Z,68.62
2019-01-04T01:27:55.384Z,69.16
2019-01-04T01:31:01.082Z,69.18
2019-01-04T01:34:06.765Z,66.58
2019-01-04T01:37:30.474Z,65.82
2019-01-04T01:40:37.387Z,67.00
2019-01-04T01:44:15.748Z,66.39
2019-01-04T01:47:12.795Z,65.26
2019-01-04T01:50:19.575Z,66.20
2019-01-04T01:52:50.588Z,63.56
2019-01-04T01:55:20.480Z,63.80
2019-01-04T01:57:50.491Z,63.79
2019-01-04T02:00:20.437Z,64.74
2019-01-04T02:02:50.383Z,64.72
2019-01-04T02:05:20.287Z,64.32
2019-01-04T02:07:50.263Z,62.57
2019-01-04T02:10:20.148Z,63.90
2019-01-04T02:12:49.971Z,64.73
2019-01-04T02:15:19.995Z,64.64
2019-01-04T02:17:50.003Z,66.06
2019-01-04T02:20:20.015Z,67.47
2019-01-04T02:22:49.828Z,66.59
2019-01-04T02:25:19.717Z,66.53
2019-01-04T02:27:49.528Z,67.38
2019-01-04T02:30:19.539Z,64.68
2019-01-04T02:32:49.398Z,64.58
2019-01-04T02:35:19.213Z,67.16
2019-01-04T02:37:49.071Z,68.40
2019-01-04T02:40:18.896Z,70.00
2019-01-04T02:42:48.866Z,67.17
2019-01-04T02:45:18.763Z,67.56
2019-01-04T02:47:48.627Z,69.68
2019-01-04T02:50:18.440Z,69.50
2019-01-04T02:52:49.283Z,67.50
2019-01-04T02:55:19.122Z,64.42
2019-01-04T02:57:48.987Z,64.72
2019-01-04T03:00:19.095Z,65.71
2019-01-04T03:02:48.996Z,65.98
2019-01-04T03:05:18.994Z,67.23
2019-01-04T03:07:48.965Z,67.55
2019-01-04T03:10:18.845Z,66.99
2019-01-04T03:12:48.671Z,68.42
2019-01-04T03:15:18.540Z,68.23
2019-01-04T03:17:48.486Z,67.01
2019-01-04T03:20:18.394Z,65.83
2019-01-04T03:22:48.297Z,68.90
2019-01-04T03:25:18.160Z,68.85
2019-01-04T03:27:48.123Z,67.60
2019-01-04T03:30:18.031Z,65.16
2019-01-04T03:32:47.949Z,67.50
2019-01-04T03:35:17.834Z,66.09
2019-01-04T03:37:47.666Z,67.22
2019-01-04T03:40:17.683Z,70.00
2019-01-04T03:42:47.580Z,68.35
2019-01-04T03:45:17.540Z,66.21
2019-01-04T03:47:47.482Z,64.10
2019-01-04T03:50:17.394Z,64.15
2019-01-04T03:52:48.360Z,64.72
2019-01-04T03:55:18.198Z,62.11
2019-01-04T03:57:48.058Z,64.00
2019-01-04T04:00:17.976Z,61.76
2019-01-04T04:02:47.935Z,62.82
2019-01-04T04:05:17.768Z,64.60
2019-01-04T04:07:47.631Z,64.42
2019-01-04T04:10:17.501Z,64.35
2019-01-04T04:12:47.325Z,65.63
2019-01-04T04:15:17.346Z,63.72
2019-01-04T04:17:47.229Z,63.91
2019-01-04T04:20:17.184Z,66.75
2019-01-04T04:22:47.011Z,66.63
2019-01-04T04:25:16.969Z,66.02
2019-01-04T04:27:46.796Z,65.30
2019-01-04T04:30:16.699Z,66.06
2019-01-04T04:32:46.591Z,64.71
2019-01-04T04:35:16.450Z,65.95
2019-01-04T04:37:46.339Z,63.33
2019-01-04T04:40:16.160Z,66.13
2019-01-04T04:42:46.012Z,65.68
2019-01-04T04:45:15.827Z,64.26
2019-01-04T04:47:45.711Z,64.74
2019-01-04T04:50:15.531Z,65.84
2019-01-04T04:52:45.452Z,66.56
2019-01-04T04:55:15.416Z,62.78
2019-01-04T04:57:45.293Z,62.29
2019-01-04T05:00:15.291Z,64.60
2019-01-04T05:02:45.230Z,63.56
2019-01-04T05:05:15.183Z,64.83
2019-01-04T05:07:45.091Z,65.28
2019-01-04T05:10:15.112Z,63.79
2019-01-04T05:12:44.924Z,59.65
2019-01-04T05:15:15.016Z,59.73
2019-01-04T05:17:44.840Z,62.91
2019-01-04T05:20:14.736Z,64.67
2019-01-04T05:22:44.646Z,66.11
2019-01-04T05:25:14.594Z,66.74
2019-01-04T05:27:44.425Z,67.33
2019-01-04T05:30:14.427Z,68.07
2019-01-04T05:32:44.304Z,67.28
2019-01-04T05:35:14.248Z,66.69
2019-01-04T05:37:44.124Z,66.77
2019-01-04T05:40:14.088Z,67.35
2019-01-04T05:42:44.097Z,67.77
2019-01-04T05:45:14.083Z,68.82
2019-01-04T05:47:43.956Z,66.55
2019-01-04T05:50:13.904Z,66.55
2019-01-04T05:52:43.853Z,66.66
2019-01-04T05:55:13.763Z,64.32
2019-01-04T05:57:43.715Z,66.38
2019-01-04T06:00:13.632Z,67.30
2019-01-04T06:02:43.494Z,68.14
2019-01-04T06:05:13.419Z,68.54
2019-01-04T06:07:43.293Z,68.14
2019-01-04T06:10:13.217Z,67.05
2019-01-04T06:12:43.091Z,67.68
2019-01-04T06:15:12.994Z,68.05
2019-01-04T06:17:43.087Z,68.10
2019-01-04T06:20:13.037Z,66.41
2019-01-04T06:22:42.942Z,67.48
2019-01-04T06:25:12.866Z,67.67
2019-01-04T06:27:44.136Z,68.13
2019-01-04T06:30:14.268Z,69.67
2019-01-04T06:32:44.148Z,68.81
2019-01-04T06:35:13.993Z,67.84
2019-01-04T06:37:43.876Z,67.20
2019-01-04T06:40:13.756Z,64.39
2019-01-04T06:42:43.723Z,65.93
2019-01-04T06:45:13.691Z,64.23
2019-01-04T06:47:45.037Z,63.59
2019-01-04T06:50:15.012Z,66.37
2019-01-04T06:52:44.896Z,66.95
2019-01-04T06:55:52.042Z,69.02
2019-01-04T06:58:21.947Z,68.68
2019-01-04T07:00:52.031Z,67.37
2019-01-04T07:03:21.935Z,68.71
2019-01-04T07:05:53.188Z,68.45
2019-01-04T07:08:23.054Z,67.34
2019-01-04T07:10:53.082Z,67.30
2019-01-04T07:13:23.152Z,66.59
2019-01-04T07:15:53.123Z,65.87
2019-01-04T07:18:22.998Z,65.95
2019-01-04T07:20:52.942Z,65.75
2019-01-04T07:23:24.027Z,63.27
2019-01-04T07:25:54.029Z,64.99
2019-01-04T07:28:23.989Z,64.15
2019-01-04T07:30:53.900Z,65.73
2019-01-04T07:33:23.786Z,68.33
2019-01-04T07:35:54.153Z,68.43
2019-01-04T07:38:24.033Z,66.93
2019-01-04T07:40:53.909Z,66.53
2019-01-04T07:43:23.823Z,66.93
2019-01-04T07:45:53.790Z,64.82
2019-01-04T07:48:23.661Z,65.75
2019-01-04T07:50:53.527Z,68.23
2019-01-04T07:53:23.419Z,68.36
2019-01-04T07:55:53.390Z,67.64
2019-01-04T07:58:23.230Z,67.25
2019-01-04T08:00:53.081Z,66.17
2019-01-04T08:03:25.196Z,65.37
2019-01-04T08:05:58.242Z,68.33
2019-01-04T08:08:28.076Z,69.54
2019-01-04T08:10:58.108Z,71.11
2019-01-04T08:13:29.006Z,71.36
2019-01-04T08:15:58.861Z,71.22
2019-01-04T08:18:28.879Z,71.53
2019-01-04T08:20:58.907Z,70.56
2019-01-04T08:23:28.771Z,71.71
2019-01-04T08:25:58.764Z,71.93
2019-01-04T08:28:28.670Z,70.76
2019-01-04T08:30:58.503Z,72.16
2019-01-04T08:33:28.445Z,72.25
2019-01-04T08:35:58.358Z,72.29
2019-01-04T08:38:28.469Z,71.04
2019-01-04T08:40:58.294Z,70.98
2019-01-04T08:43:28.256Z,70.71
2019-01-04T08:45:58.243Z,71.03
2019-01-04T08:48:28.209Z,72.22
2019-01-04T08:50:58.161Z,70.81
2019-01-04T08:53:55.344Z,70.67
2019-01-04T08:56:26.347Z,69.65
2019-01-04T08:58:56.372Z,68.84
2019-01-04T09:01:26.496Z,68.15
2019-01-04T09:03:56.436Z,67.62
2019-01-04T09:06:26.448Z,69.80
2019-01-04T09:08:56.286Z,70.10
2019-01-04T09:11:26.223Z,69.77
2019-01-04T09:13:56.058Z,69.45
2019-01-04T09:16:25.935Z,71.68
2019-01-04T09:18:55.763Z,72.14
2019-01-04T09:21:26.010Z,72.75
2019-01-04T09:23:55.858Z,73.23
2019-01-04T09:26:25.779Z,72.59
2019-01-04T09:28:55.694Z,73.09
2019-01-04T09:31:25.628Z,73.37
2019-01-04T09:33:55.581Z,73.79
2019-01-04T09:36:25.555Z,74.01
2019-01-04T09:38:55.475Z,73.28
2019-01-04T09:41:33.540Z,73.39
2019-01-04T09:44:03.991Z,74.28
2019-01-04T09:46:33.968Z,73.27
2019-01-04T09:49:03.880Z,73.63
2019-01-04T09:51:33.861Z,74.68
2019-01-04T09:54:03.815Z,75.06
2019-01-04T09:56:33.771Z,76.36
2019-01-04T09:59:03.694Z,77.14
2019-01-04T10:01:33.610Z,75.90
2019-01-04T10:04:03.536Z,75.93
2019-01-04T10:06:33.393Z,75.89
2019-01-04T10:09:03.720Z,76.26
2019-01-04T10:11:33.741Z,75.61
2019-01-04T10:14:03.702Z,75.05
2019-01-04T10:16:33.610Z,76.39
2019-01-04T10:19:03.635Z,75.86
2019-01-04T10:21:33.601Z,76.06
2019-01-04T10:24:03.543Z,76.07
2019-01-04T10:26:33.562Z,76.27
2019-01-04T10:29:03.466Z,76.86
2019-01-04T10:31:33.521Z,76.46
2019-01-04T10:34:03.527Z,74.46
2019-01-04T10:36:33.431Z,76.30
2019-01-04T10:39:04.616Z,75.92
2019-01-04T10:41:34.575Z,76.73
2019-01-04T10:44:04.543Z,75.43
2019-01-04T10:46:34.569Z,74.59
2019-01-04T10:49:04.535Z,75.97
2019-01-04T10:51:34.568Z,71.71
2019-01-04T10:54:04.654Z,70.60
2019-01-04T10:56:34.676Z,68.26
2019-01-04T10:59:04.672Z,68.60
2019-01-04T11:01:34.627Z,71.23
2019-01-04T11:04:04.555Z,70.24
2019-01-04T11:06:34.478Z,71.67
2019-01-04T11:09:07.043Z,71.29
2019-01-04T11:11:37.012Z,71.85
2019-01-04T11:14:06.939Z,73.62
2019-01-04T11:16:36.826Z,72.27
2019-01-04T11:19:06.698Z,71.59
2019-01-04T11:21:36.581Z,74.30
2019-01-04T11:24:35.069Z,74.93
2019-01-04T11:27:10.534Z,73.75
2019-01-04T11:30:17.590Z,73.34
2019-01-04T11:33:04.797Z,74.16
2019-01-04T11:36:02.439Z,75.00
2019-01-04T11:38:43.750Z,73.85
2019-01-04T11:41:57.615Z,74.40
2019-01-04T11:45:20.577Z,72.87
2019-01-04T11:48:14.099Z,72.76
2019-01-04T11:51:19.434Z,74.71
2019-01-04T11:53:49.373Z,73.25
2019-01-04T11:56:19.208Z,72.26
2019-01-04T11:58:49.112Z,71.32
2019-01-04T12:01:19.058Z,71.62
2019-01-04T12:03:57.203Z,72.77
2019-01-04T12:06:27.343Z,73.02
2019-01-04T12:08:57.446Z,70.46
2019-01-04T12:11:27.460Z,72.93
2019-01-04T12:13:57.392Z,73.22
2019-01-04T12:16:27.232Z,74.42
2019-01-04T12:18:57.064Z,73.27
2019-01-04T12:21:26.936Z,73.10
2019-01-04T12:23:56.853Z,71.04
2019-01-04T12:26:27.607Z,70.08
2019-01-04T12:28:58.640Z,71.08
2019-01-04T12:31:28.568Z,71.36
2019-01-04T12:33:58.488Z,71.17
2019-01-04T12:36:28.520Z,72.39
2019-01-04T12:38:58.545Z,70.15
2019-01-04T12:41:28.474Z,69.71
2019-01-04T12:43:58.446Z,69.65
2019-01-04T12:46:28.460Z,70.64
2019-01-04T12:48:58.497Z,70.51
2019-01-04T12:51:28.389Z,68.98
2019-01-04T12:53:58.418Z,69.81
2019-01-04T12:56:28.268Z,69.70
2019-01-04T12:58:58.190Z,69.18
2019-01-04T13:01:28.126Z,71.21
2019-01-04T13:03:58.001Z,70.93
2019-01-04T13:06:27.953Z,71.68
2019-01-04T13:08:57.800Z,74.69
2019-01-04T13:11:27.774Z,72.16
2019-01-04T13:13:57.761Z,74.41
2019-01-04T13:16:27.697Z,74.33
2019-01-04T13:18:57.555Z,72.50
2019-01-04T13:21:27.653Z,73.24
2019-01-04T13:23:57.636Z,73.73
2019-01-04T13:26:27.638Z,74.92
2019-01-04T13:28:57.546Z,74.32
2019-01-04T13:31:27.501Z,74.30
2019-01-04T13:33:57.367Z,73.80
2019-01-04T13:36:30.757Z,75.46
2019-01-04T13:39:00.824Z,75.40
2019-01-04T13:41:32.353Z,76.41
2019-01-04T13:44:02.484Z,76.44
2019-01-04T13:46:32.537Z,74.79
2019-01-04T13:49:02.429Z,75.69
2019-01-04T13:51:32.377Z,76.28
2019-01-04T13:54:02.368Z,75.56
2019-01-04T13:56:32.365Z,74.84
2019-01-04T13:59:02.410Z,75.50
2019-01-04T14:01:32.312Z,76.17
2019-01-04T14:04:02.369Z,76.15
2019-01-04T14:06:33.503Z,75.85
2019-01-04T14:09:04.820Z,76.05
2019-01-04T14:11:34.821Z,76.56
2019-01-04T14:14:04.932Z,78.02
2019-01-04T14:16:35.019Z,77.77
2019-01-04T14:19:04.937Z,78.06
2019-01-04T14:21:34.959Z,78.47
2019-01-04T14:24:05.059Z,78.79
2019-01-04T14:26:35.162Z,78.68
2019-01-04T14:29:05.163Z,78.99
2019-01-04T14:31:35.191Z,79.96
2019-01-04T14:34:05.291Z,79.21
2019-01-04T14:36:35.284Z,79.98
2019-01-04T14:39:07.861Z,79.18
2019-01-04T14:41:37.915Z,79.26
2019-01-04T14:44:07.886Z,79.73
2019-01-04T14:46:37.879Z,79.18
2019-01-04T14:49:08.798Z,78.79
2019-01-04T14:51:40.755Z,79.86
2019-01-04T14:54:11.067Z,79.13
2019-01-04T14:56:41.044Z,79.86
2019-01-04T14:59:10.868Z,79.45
2019-01-04T15:01:40.885Z,79.00
2019-01-04T15:04:11.825Z,78.18
2019-01-04T15:06:41.867Z,78.16
2019-01-04T15:09:11.838Z,77.57
2019-01-04T15:11:41.884Z,78.41
2019-01-04T15:14:11.869Z,77.47
2019-01-04T15:16:41.756Z,79.07
2019-01-04T15:19:11.697Z,78.37
2019-01-04T15:21:41.678Z,78.77
2019-01-04T15:24:11.770Z,77.32
2019-01-04T15:26:41.885Z,77.91
2019-01-04T15:29:12.445Z,78.44
2019-01-04T15:31:42.417Z,78.27
2019-01-04T15:34:12.380Z,78.22
2019-01-04T15:36:42.485Z,77.97
2019-01-04T15:39:12.429Z,78.10
2019-01-04T15:41:42.327Z,77.87
2019-01-04T15:44:12.223Z,78.22
2019-01-04T15:46:42.195Z,77.36
2019-01-04T15:49:12.078Z,78.14
2019-01-04T15:51:42.306Z,77.38
2019-01-04T15:54:12.215Z,77.63
2019-01-04T15:56:42.181Z,77.13
2019-01-04T15:59:12.089Z,77.21
2019-01-04T16:01:42.104Z,76.06
2019-01-04T16:04:12.082Z,76.52
2019-01-04T16:06:41.999Z,77.09
2019-01-04T16:09:11.899Z,76.49
2019-01-04T16:11:41.866Z,76.72
2019-01-04T16:14:11.844Z,77.22
2019-01-04T16:16:41.898Z,77.11
2019-01-04T16:19:11.897Z,77.10
2019-01-04T16:21:41.875Z,77.18
2019-01-04T16:24:11.870Z,76.18
2019-01-04T16:26:41.679Z,76.54
2019-01-04T16:29:11.569Z,76.67
2019-01-04T16:31:41.478Z,77.75
2019-01-04T16:34:11.423Z,77.46
2019-01-04T16:36:41.295Z,77.83
2019-01-04T16:39:11.808Z,77.29
2019-01-04T16:41:41.724Z,77.44
2019-01-04T16:44:11.911Z,77.30
2019-01-04T16:46:41.891Z,76.71
2019-01-04T16:49:11.909Z,76.29
2019-01-04T16:51:42.658Z,76.58
2019-01-04T16:54:12.782Z,76.83
2019-01-04T16:56:42.813Z,76.66
2019-01-04T16:59:12.848Z,76.70
2019-01-04T17:01:42.781Z,76.30
2019-01-04T17:04:12.724Z,76.23
2019-01-04T17:06:42.896Z,76.86
2019-01-04T17:09:12.887Z,75.88
2019-01-04T17:11:42.831Z,76.68
2019-01-04T17:14:12.895Z,75.99
2019-01-04T17:16:42.890Z,75.85
2019-01-04T17:19:12.794Z,76.68
2019-01-04T17:21:42.771Z,76.10
2019-01-04T17:24:13.301Z,75.41
2019-01-04T17:26:43.475Z,76.33
2019-01-04T17:29:13.450Z,76.04
2019-01-04T17:31:43.509Z,76.49
2019-01-04T17:34:13.414Z,75.88
2019-01-04T17:36:43.395Z,75.86
2019-01-04T17:39:13.843Z,75.71
2019-01-04T17:41:43.805Z,75.49
2019-01-04T17:44:13.630Z,75.65
2019-01-04T17:46:43.600Z,75.09
2019-01-04T17:49:13.775Z,75.18
2019-01-04T17:51:43.759Z,75.14
2019-01-04T17:54:13.755Z,74.65
2019-01-04T17:56:43.695Z,75.80
2019-01-04T17:59:13.724Z,75.55
2019-01-04T18:01:43.697Z,75.21
2019-01-04T18:04:13.816Z,74.75
2019-01-04T18:06:43.752Z,73.60
2019-01-04T18:09:14.694Z,72.83
2019-01-04T18:11:44.611Z,72.79
2019-01-04T18:14:14.521Z,72.94
2019-01-04T18:16:44.416Z,73.51
2019-01-04T18:19:14.402Z,73.47
2019-01-04T18:21:44.414Z,72.66
2019-01-04T18:24:14.466Z,72.33
2019-01-04T18:26:44.361Z,71.52
2019-01-04T18:29:14.395Z,71.05
2019-01-04T18:31:44.312Z,71.25
2019-01-04T18:34:14.160Z,71.35
2019-01-04T18:36:44.104Z,71.71
2019-01-04T18:39:14.100Z,71.16
2019-01-04T18:41:44.015Z,70.60
2019-01-04T18:44:14.077Z,71.27
2019-01-04T18:46:44.143Z,70.78
2019-01-04T18:49:14.216Z,70.25
2019-01-04T18:51:44.079Z,70.83
2019-01-04T18:54:14.302Z,70.01
2019-01-04T18:56:44.239Z,70.11
2019-01-04T18:59:14.308Z,70.20
2019-01-04T19:01:44.446Z,70.60
2019-01-04T19:04:14.528Z,70.57
2019-01-04T19:06:44.370Z,70.69
2019-01-04T19:09:37.136Z,70.05
2019-01-04T19:12:31.206Z,70.14
2019-01-04T19:15:05.367Z,69.70
2019-01-04T19:17:45.870Z,69.92
2019-01-04T19:20:21.167Z,69.63
2019-01-04T19:23:03.885Z,69.93
2019-01-04T19:25:42.712Z,70.07
2019-01-04T19:28:17.078Z,70.05
2019-01-04T19:33:31.451Z,70.03
2019-01-04T19:36:11.836Z,69.34
2019-01-04T19:38:46.224Z,68.86
2019-01-04T19:41:21.287Z,69.22
2019-01-04T19:43:59.451Z,68.50
2019-01-04T19:49:34.082Z,67.97
2019-01-04T19:52:07.424Z,67.45
2019-01-04T19:57:34.020Z,67.81
2019-01-04T20:00:13.524Z,67.53
2019-01-04T20:02:49.877Z,67.50
2019-01-04T20:06:15.248Z,68.06
2019-01-04T20:09:40.590Z,67.86
2019-01-04T20:13:43.406Z,67.45
2019-01-04T20:17:01.076Z,68.02
2019-01-04T20:20:35.444Z,67.70
2019-01-04T20:23:37.159Z,67.56
2019-01-04T20:26:28.437Z,67.39
2019-01-04T20:29:20.704Z,66.69
2019-01-04T20:32:25.505Z,67.64
2019-01-04T20:35:16.035Z,67.09
2019-01-04T20:38:10.531Z,67.13
2019-01-04T20:41:17.508Z,67.11
2019-01-04T20:44:31.735Z,66.51
2019-01-04T20:47:21.629Z,66.84
2019-01-04T20:50:24.107Z,66.44
2019-01-04T20:53:29.642Z,67.15
2019-01-04T20:56:21.860Z,68.13
2019-01-04T20:59:17.371Z,68.93
2019-01-04T21:02:15.738Z,70.36
2019-01-04T21:05:15.650Z,70.49
2019-01-04T21:08:17.779Z,70.85
2019-01-04T21:11:25.572Z,70.82
2019-01-04T21:14:39.759Z,70.77
2019-01-04T21:17:33.023Z,71.31
2019-01-04T21:20:50.245Z,72.45
2019-01-04T21:23:43.350Z,72.66
2019-01-04T21:26:31.702Z,72.80
2019-01-04T21:29:34.502Z,73.33
2019-01-04T21:32:22.696Z,74.47
2019-01-04T21:38:28.265Z,75.25
2019-01-04T21:41:21.833Z,74.30
2019-01-04T21:44:16.067Z,74.45
2019-01-04T21:47:10.353Z,74.88
2019-01-04T21:49:57.014Z,74.86
2019-01-04T21:52:42.911Z,75.08
2019-01-04T21:55:40.619Z,75.78
2019-01-04T21:58:28.482Z,75.35
2019-01-04T22:01:20.459Z,76.62
2019-01-04T22:04:27.782Z,76.69
2019-01-04T22:07:16.892Z,76.75
2019-01-04T22:10:05.871Z,78.56
2019-01-04T22:12:53.663Z,78.61
2019-01-04T22:15:41.312Z,79.41
2019-01-04T22:18:29.291Z,79.12
2019-01-04T22:21:23.868Z,79.70
2019-01-04T22:24:14.619Z,80.22
2019-01-04T22:27:02.195Z,80.66
2019-01-04T22:29:57.380Z,81.23
2019-01-04T22:32:41.412Z,80.69
2019-01-04T22:35:29.997Z,80.84
2019-01-04T22:38:25.150Z,80.85
2019-01-04T22:41:14.605Z,81.08
2019-01-04T22:44:07.710Z,81.48
2019-01-04T22:46:59.407Z,81.57
2019-01-04T22:49:48.308Z,81.85
2019-01-04T22:52:26.224Z,81.80
2019-01-04T22:55:13.665Z,81.65
2019-01-04T22:58:01.350Z,81.78
2019-01-04T23:00:50.029Z,81.99
2019-01-04T23:03:37.783Z,82.22
2019-01-04T23:06:36.813Z,82.20
2019-01-04T23:09:27.307Z,82.47
2019-01-04T23:12:16.133Z,82.94
2019-01-04T23:15:04.998Z,83.55
2019-01-04T23:17:45.906Z,83.54
2019-01-04T23:20:39.106Z,83.12
2019-01-04T23:23:27.109Z,83.39
2019-01-04T23:26:22.139Z,83.94
2019-01-04T23:29:17.171Z,83.78
2019-01-04T23:32:15.112Z,83.82
2019-01-04T23:35:06.989Z,84.18
2019-01-04T23:37:55.032Z,81.41
2019-01-04T23:40:42.682Z,78.33
2019-01-04T23:43:30.416Z,81.55
2019-01-04T23:46:25.621Z,80.56
2019-01-04T23:49:14.853Z,81.12
2019-01-04T23:52:19.199Z,80.69
2019-01-04T23:55:09.328Z,82.04
2019-01-04T23:57:56.852Z,81.58
